Terminal Aerodrome Forecast
Issued by NWS Cleveland, OH

Home | Current Version | Previous Version | Graphics & Text | Print | Product List | Glossary On
Versions: 1 2 3 4 5 6 7 8 9 10 11 12 13 14 15 16 17 18 19 20
844
FTUS41 KCLE 091142
TAFERI
TAF
KERI 091142Z 0912/1012 25008KT P6SM SCT015 OVC025
      TEMPO 0912/0914 BKN009 OVC015
     FM091900 24012G20KT P6SM OVC015
     FM100600 27014G22KT 4SM -SN SCT006 OVC012
      TEMPO 1007/1011 1 1/2SM -SN OVC006=

USA.gov is the U.S. government's official web portal to all federal, state and local government web resources and services.